Time;durP1;ratioP1;P1;durP2;ratioP2;P2;SDS_P1;SDS_P2;PMS_P1;PMS_P2;Temp;Humidity;BMP_temperature;BMP_pressure;BME280_temperature;BME280_humidity;BME280_pressure;Samples;Min_cycle;Max_cycle;Signal;HPM_P1;HPM_P2
2022/09/03 00:00:51;;;;;;;12.55;8.80;;;;;;;21.89;100.00;100310.16;5055230;28;20048;-87
2022/09/03 00:03:35;;;;;;;11.70;7.53;;;;;;;22.09;100.00;100304.31;5036351;28;20102;-86
2022/09/03 00:06:27;;;;;;;14.80;8.57;;;;;;;21.71;100.00;100304.09;5057794;28;20401;-86
2022/09/03 00:09:02;;;;;;;12.40;7.35;;;;;;;21.81;100.00;100305.09;5053853;28;20104;-87
2022/09/03 00:11:38;;;;;;;11.25;7.65;;;;;;;21.71;100.00;100299.50;5054174;28;20095;-87
2022/09/03 00:14:11;;;;;;;15.15;7.00;;;;;;;21.44;100.00;100298.44;5055152;28;20037;-86
2022/09/03 00:16:53;;;;;;;18.00;7.32;;;;;;;21.53;100.00;100303.22;5058152;28;20037;-86
2022/09/03 00:19:27;;;;;;;9.30;7.75;;;;;;;21.65;100.00;100306.69;5055676;28;20059;-88
2022/09/03 00:22:16;;;;;;;14.20;7.07;;;;;;;21.84;100.00;100315.41;5055827;28;20124;-86
2022/09/03 00:24:44;;;;;;;11.20;6.82;;;;;;;21.69;100.00;100317.81;5057879;28;20047;-86
2022/09/03 00:27:24;;;;;;;11.35;7.07;;;;;;;21.78;100.00;100315.56;5053246;28;20115;-86
2022/09/03 00:30:03;;;;;;;12.20;7.07;;;;;;;21.59;100.00;100318.44;5053133;28;20044;-85
2022/09/03 00:32:45;;;;;;;14.23;6.90;;;;;;;21.55;100.00;100322.66;5052887;28;20029;-86
2022/09/03 00:35:25;;;;;;;12.02;7.82;;;;;;;21.37;100.00;100314.75;5053066;28;20039;-86
2022/09/03 00:37:55;;;;;;;13.77;7.65;;;;;;;21.23;100.00;100312.53;5053213;28;20124;-86
2022/09/03 00:40:59;;;;;;;13.75;8.40;;;;;;;21.14;100.00;100314.78;5059775;28;20033;-86
2022/09/03 00:43:25;;;;;;;14.50;8.93;;;;;;;21.11;100.00;100321.44;5070004;28;20021;-86
2022/09/03 00:46:10;;;;;;;12.70;8.65;;;;;;;21.02;100.00;100327.41;5076401;28;20037;-85
2022/09/03 00:49:11;;;;;;;14.23;9.52;;;;;;;20.89;100.00;100324.94;5059376;28;20037;-86
2022/09/03 00:51:55;;;;;;;15.80;9.20;;;;;;;20.77;100.00;100334.91;5053102;28;20069;-84
2022/09/03 00:54:44;;;;;;;13.75;8.90;;;;;;;20.84;100.00;100341.81;5055820;28;20075;-85
2022/09/03 00:57:37;;;;;;;12.70;8.25;;;;;;;20.78;100.00;100331.94;5060563;28;20489;-85
2022/09/03 01:00:15;;;;;;;12.75;8.50;;;;;;;20.80;100.00;100339.81;5076608;28;20128;-85
2022/09/03 01:02:59;;;;;;;10.60;7.30;;;;;;;20.76;100.00;100350.22;5057368;28;20029;-87
2022/09/03 01:05:37;;;;;;;14.98;8.10;;;;;;;20.75;100.00;100353.19;5055280;28;20127;-86
2022/09/03 01:08:40;;;;;;;11.50;7.40;;;;;;;20.81;100.00;100353.06;5056805;28;20044;-87
2022/09/03 01:11:22;;;;;;;9.63;7.32;;;;;;;20.91;100.00;100355.97;5056920;28;20033;-87
2022/09/03 01:14:23;;;;;;;17.05;7.93;;;;;;;20.94;100.00;100350.16;5056554;28;20044;-86
2022/09/03 01:17:02;;;;;;;9.65;7.70;;;;;;;20.91;100.00;100353.28;5056438;28;20037;-87
2022/09/03 01:20:15;;;;;;;14.48;9.05;;;;;;;20.96;100.00;100349.91;5056285;28;20098;-86
2022/09/03 01:22:59;;;;;;;;;;;;;;;20.95;100.00;100354.47;5034725;28;20043;-86
2022/09/03 01:25:30;;;;;;;12.45;7.88;;;;;;;21.04;100.00;100341.47;5033962;28;20458;-86
2022/09/03 01:28:09;;;;;;;9.93;7.78;;;;;;;21.04;100.00;100342.28;5017760;28;20048;-86
2022/09/03 01:30:45;;;;;;;13.30;8.52;;;;;;;21.04;100.00;100346.88;5035298;28;20044;-85
2022/09/03 01:33:39;;;;;;;12.05;7.10;;;;;;;21.04;100.00;100347.69;5036019;28;20045;-87
2022/09/03 01:36:16;;;;;;;10.27;6.55;;;;;;;21.06;100.00;100350.94;5025857;28;20041;-87
2022/09/03 01:39:10;;;;;;;12.60;7.57;;;;;;;21.13;100.00;100342.78;5024666;28;20052;-87
2022/09/03 01:44:52;;;;;;;8.48;6.00;;;;;;;20.84;100.00;100341.00;5052574;28;20033;-86
2022/09/03 01:47:36;;;;;;;12.27;5.50;;;;;;;20.67;100.00;100334.66;5057148;28;20053;-84
2022/09/03 01:50:16;;;;;;;7.47;5.35;;;;;;;20.62;100.00;100343.41;5057056;28;20048;-88
2022/09/03 01:52:58;;;;;;;8.02;5.40;;;;;;;20.50;100.00;100350.66;5062911;28;20073;-85
2022/09/03 01:55:57;;;;;;;6.78;5.10;;;;;;;20.53;100.00;100352.88;5080164;28;20033;-82
2022/09/03 01:58:32;;;;;;;10.35;5.72;;;;;;;20.52;100.00;100349.38;5066679;28;20053;-85
2022/09/03 02:01:09;;;;;;;9.07;6.28;;;;;;;20.48;100.00;100350.88;5060554;28;20029;-85
2022/09/03 02:03:39;;;;;;;8.70;5.63;;;;;;;20.66;100.00;100355.38;5062379;28;20033;-86
2022/09/03 02:06:06;;;;;;;7.63;6.30;;;;;;;20.50;100.00;100348.78;5071361;28;20071;-86
2022/09/03 02:08:32;;;;;;;9.63;6.07;;;;;;;20.44;100.00;100352.41;5079467;28;20025;-82
2022/09/03 02:11:01;;;;;;;7.88;5.82;;;;;;;20.54;100.00;100357.22;5079006;28;20052;-84
2022/09/03 02:13:47;;;;;;;11.77;6.07;;;;;;;20.65;100.00;100359.09;5076998;28;20041;-83
2022/09/03 02:16:23;;;;;;;12.27;6.53;;;;;;;20.57;100.00;100362.16;5067713;28;20043;-83
2022/09/03 02:18:58;;;;;;;9.32;6.97;;;;;;;20.60;100.00;100359.81;5051868;28;20029;-84
2022/09/03 02:21:27;;;;;;;7.65;6.53;;;;;;;20.74;100.00;100351.53;5055156;28;20033;-83
2022/09/03 02:23:55;;;;;;;11.82;6.43;;;;;;;20.59;100.00;100354.66;5054889;28;20458;-84
2022/09/03 02:26:24;;;;;;;8.90;5.82;;;;;;;20.67;100.00;100351.63;5055238;28;20029;-86
2022/09/03 02:28:51;;;;;;;7.68;6.75;;;;;;;20.60;100.00;100351.75;5055503;28;20040;-86
2022/09/03 02:31:17;;;;;;;9.90;6.15;;;;;;;20.53;100.00;100351.03;5055262;28;20403;-85
2022/09/03 02:33:48;;;;;;;10.23;6.60;;;;;;;20.46;100.00;100360.25;5055017;28;20036;-82
2022/09/03 02:36:18;;;;;;;12.40;6.93;;;;;;;20.54;100.00;100357.22;5055538;28;20029;-82
2022/09/03 02:38:45;;;;;;;13.75;7.20;;;;;;;20.45;100.00;100358.63;5053814;28;20037;-83
2022/09/03 02:41:13;;;;;;;9.65;6.70;;;;;;;20.40;100.00;100355.78;5055140;28;20507;-86
2022/09/03 02:44:00;;;;;;;11.90;7.60;;;;;;;20.28;100.00;100349.56;5054934;28;20120;-85
2022/09/03 02:46:37;;;;;;;12.65;7.47;;;;;;;20.24;100.00;100351.03;5055406;28;20048;-85
2022/09/03 02:49:04;;;;;;;12.40;7.03;;;;;;;20.30;100.00;100355.50;5055542;28;20036;-84
2022/09/03 02:51:39;;;;;;;9.45;6.93;;;;;;;20.40;100.00;100348.53;5055055;28;20391;-83
2022/09/03 02:54:04;;;;;;;10.18;6.82;;;;;;;20.45;100.00;100350.53;5056675;28;20562;-83
2022/09/03 02:56:31;;;;;;;11.20;7.25;;;;;;;20.69;100.00;100352.22;5055321;28;20075;-82
2022/09/03 02:58:59;;;;;;;8.10;7.03;;;;;;;20.37;100.00;100346.31;5054075;28;20136;-86
2022/09/03 03:01:25;;;;;;;13.35;7.13;;;;;;;20.37;100.00;100348.16;5056911;28;20441;-84
2022/09/03 03:03:51;;;;;;;10.00;7.45;;;;;;;20.41;100.00;100342.09;5071258;28;20117;-84
2022/09/03 03:06:19;;;;;;;12.65;6.68;;;;;;;20.46;100.00;100341.41;5056485;28;20036;-83
2022/09/03 03:08:46;;;;;;;10.50;7.55;;;;;;;20.51;100.00;100346.91;5055697;28;20029;-81
2022/09/03 03:11:17;;;;;;;11.63;6.90;;;;;;;20.46;100.00;100344.91;5053888;28;20032;-83
2022/09/03 03:13:44;;;;;;;9.52;6.20;;;;;;;20.40;100.00;100351.22;5055429;28;20037;-83
2022/09/03 03:16:10;;;;;;;7.20;6.47;;;;;;;20.11;100.00;100352.88;5054695;28;20571;-84
2022/09/03 03:18:36;;;;;;;9.65;7.28;;;;;;;19.99;100.00;100348.47;5054567;28;20029;-83
2022/09/03 03:21:12;;;;;;;12.07;7.45;;;;;;;20.30;100.00;100350.13;5054079;28;20451;-83
2022/09/03 03:23:41;;;;;;;11.13;7.20;;;;;;;20.24;100.00;100345.63;5053164;28;20353;-82
2022/09/03 03:26:10;;;;;;;13.85;7.07;;;;;;;20.14;100.00;100346.19;5054468;28;20036;-83
2022/09/03 03:28:37;;;;;;;8.18;6.88;;;;;;;20.06;100.00;100351.88;5054597;28;20038;-82
2022/09/03 03:31:11;;;;;;;11.50;8.25;;;;;;;19.87;100.00;100342.22;5053064;28;20125;-83
2022/09/03 03:33:38;;;;;;;13.50;8.00;;;;;;;19.72;100.00;100349.88;5054507;28;20029;-81
2022/09/03 03:36:12;;;;;;;21.52;8.27;;;;;;;19.62;100.00;100347.69;5054621;28;20072;-83
2022/09/03 03:38:38;;;;;;;11.70;8.25;;;;;;;19.57;100.00;100350.25;5055438;28;20037;-84
2022/09/03 03:41:12;;;;;;;12.77;8.40;;;;;;;19.62;100.00;100353.06;5056895;28;20025;-81
2022/09/03 03:43:41;;;;;;;14.80;8.32;;;;;;;19.66;100.00;100353.44;5069071;28;20029;-80
2022/09/03 03:46:07;;;;;;;16.17;8.15;;;;;;;19.59;100.00;100343.59;5074612;28;20021;-83
2022/09/03 03:48:37;;;;;;;11.38;8.00;;;;;;;19.53;100.00;100349.03;5060037;28;20049;-84
2022/09/03 03:51:15;;;;;;;9.77;7.65;;;;;;;19.46;100.00;100340.22;5056101;28;20098;-84
2022/09/03 03:53:44;;;;;;;14.77;9.00;;;;;;;19.40;100.00;100343.78;5054494;28;20086;-84
2022/09/03 03:56:13;;;;;;;13.27;7.95;;;;;;;19.36;100.00;100347.94;5055946;28;20037;-85
2022/09/03 03:58:41;;;;;;;9.02;8.10;;;;;;;19.35;100.00;100349.03;5056206;28;20167;-84
2022/09/03 04:01:18;;;;;;;15.93;7.90;;;;;;;19.40;100.00;100349.16;5054799;28;20044;-85
2022/09/03 04:03:44;;;;;;;12.10;8.27;;;;;;;19.35;100.00;100346.34;5056154;28;20048;-85
2022/09/03 04:06:12;;;;;;;10.40;8.60;;;;;;;19.36;100.00;100347.94;5038667;28;20033;-84
2022/09/03 04:08:40;;;;;;;12.27;9.18;;;;;;;19.33;100.00;100351.09;5056146;28;20054;-84
2022/09/03 04:11:09;;;;;;;13.02;8.23;;;;;;;19.26;100.00;100351.16;5056283;28;20025;-83
2022/09/03 04:13:38;;;;;;;10.88;8.38;;;;;;;19.28;100.00;100350.94;5055197;28;20471;-84
2022/09/03 04:16:09;;;;;;;13.82;8.88;;;;;;;19.31;100.00;100350.50;5055337;28;20094;-82
2022/09/03 04:18:35;;;;;;;14.90;8.23;;;;;;;19.35;100.00;100357.09;5052850;28;20376;-84
2022/09/03 04:21:10;;;;;;;13.85;9.00;;;;;;;19.32;100.00;100346.78;5053131;28;20029;-83
2022/09/03 04:23:41;;;;;;;11.32;8.82;;;;;;;19.21;100.00;100347.50;5053317;28;20075;-83
2022/09/03 04:26:09;;;;;;;12.30;9.02;;;;;;;19.16;100.00;100347.38;5054052;28;20069;-89
2022/09/03 04:28:35;;;;;;;20.20;10.15;;;;;;;19.16;100.00;100342.00;5055130;28;20056;-87
2022/09/03 04:31:02;;;;;;;13.95;9.82;;;;;;;19.24;100.00;100333.63;5055120;28;20396;-89
2022/09/03 04:33:29;;;;;;;14.82;8.75;;;;;;;19.40;100.00;100347.31;5056169;28;20037;-89
2022/09/03 04:36:04;;;;;;;14.98;8.88;;;;;;;19.38;100.00;100345.88;5057320;28;20040;-91
2022/09/03 04:38:31;;;;;;;15.45;9.40;;;;;;;19.37;100.00;100354.97;5056299;28;20037;-88
2022/09/03 04:40:58;;;;;;;10.52;8.70;;;;;;;19.40;100.00;100349.16;5057405;28;20056;-89
2022/09/03 04:43:24;;;;;;;10.40;8.80;;;;;;;19.40;100.00;100350.00;5057915;28;20045;-87
2022/09/03 04:45:49;;;;;;;12.32;8.70;;;;;;;19.50;100.00;100353.00;5061319;28;20561;-88
2022/09/03 04:48:15;;;;;;;11.57;8.52;;;;;;;19.70;100.00;100352.78;5056296;28;20066;-84
2022/09/03 04:50:41;;;;;;;15.85;9.98;;;;;;;19.61;100.00;100346.06;5072720;28;20052;-83
2022/09/03 04:53:06;;;;;;;12.23;8.70;;;;;;;19.69;100.00;100348.44;5057426;28;20032;-84
2022/09/03 04:55:34;;;;;;;17.48;9.10;;;;;;;19.71;100.00;100340.97;5058059;28;20091;-86
2022/09/03 04:57:59;;;;;;;10.48;8.48;;;;;;;19.91;100.00;100343.41;5059993;28;20017;-86
2022/09/03 05:00:25;;;;;;;13.90;8.80;;;;;;;19.80;100.00;100334.22;5057435;28;20486;-86
2022/09/03 05:02:51;;;;;;;15.32;8.43;;;;;;;19.88;100.00;100338.50;5057553;28;20044;-86
2022/09/03 05:05:17;;;;;;;19.83;7.97;;;;;;;19.59;100.00;100337.38;5058001;28;20491;-87
2022/09/03 05:07:44;;;;;;;12.02;9.07;;;;;;;19.63;100.00;100327.81;5039298;28;20037;-86
2022/09/03 05:10:20;;;;;;;11.18;7.53;;;;;;;19.60;100.00;100339.84;5056435;28;20353;-88
2022/09/03 05:12:48;;;;;;;11.80;8.15;;;;;;;19.56;100.00;100333.28;5055370;28;20037;-87
2022/09/03 05:15:14;;;;;;;15.40;7.97;;;;;;;19.65;100.00;100319.53;5055782;28;20445;-88
2022/09/03 05:17:40;;;;;;;9.80;6.90;;;;;;;19.33;100.00;100332.28;5056537;28;20033;-85
2022/09/03 05:20:07;;;;;;;12.85;7.63;;;;;;;18.94;100.00;100334.34;5071901;28;20029;-89
2022/09/03 05:22:33;;;;;;;9.15;7.93;;;;;;;18.75;100.00;100329.97;5056331;28;20033;-85
2022/09/03 05:24:59;;;;;;;10.90;8.30;;;;;;;18.67;100.00;100334.78;5056256;28;20025;-86
2022/09/03 05:27:25;;;;;;;18.38;9.80;;;;;;;18.82;100.00;100325.38;5054293;28;20040;-86
2022/09/03 05:29:50;;;;;;;18.48;10.05;;;;;;;18.66;100.00;100328.59;5056964;28;20033;-87
2022/09/03 05:32:16;;;;;;;13.30;9.98;;;;;;;18.65;100.00;100334.19;5057141;28;20044;-86
2022/09/03 05:34:42;;;;;;;13.80;9.32;;;;;;;18.69;100.00;100338.91;5054854;28;20045;-87
2022/09/03 05:37:10;;;;;;;17.40;9.60;;;;;;;18.68;100.00;100339.94;5054375;28;20087;-86
2022/09/03 05:39:36;;;;;;;12.70;9.40;;;;;;;18.59;100.00;100336.69;5039813;28;20053;-84
2022/09/03 05:42:01;;;;;;;13.15;9.50;;;;;;;18.68;100.00;100347.16;5070337;28;20033;-82
2022/09/03 05:44:27;;;;;;;17.50;10.18;;;;;;;18.67;100.00;100357.09;5056679;28;20059;-85
2022/09/03 05:46:53;;;;;;;15.25;10.07;;;;;;;18.68;100.00;100355.22;5057119;28;20090;-85
2022/09/03 05:49:19;;;;;;;16.10;9.80;;;;;;;18.77;100.00;100360.09;5057079;28;20029;-87
2022/09/03 05:51:45;;;;;;;16.83;9.52;;;;;;;18.84;100.00;100354.66;5055331;28;21385;-83
2022/09/03 05:54:10;;;;;;;14.13;8.93;;;;;;;18.89;100.00;100361.00;5052202;28;20110;-84
2022/09/03 05:56:38;;;;;;;16.25;9.32;;;;;;;19.12;100.00;100359.59;5055270;28;20086;-89
2022/09/03 05:59:08;;;;;;;14.95;8.85;;;;;;;19.43;100.00;100364.88;5055134;28;20029;-91
2022/09/03 06:01:36;;;;;;;20.98;8.27;;;;;;;19.97;100.00;100372.91;5053235;28;20172;-85
2022/09/03 06:04:07;;;;;;;14.93;8.77;;;;;;;20.15;100.00;100374.72;5055214;28;20097;-88
2022/09/03 06:06:36;;;;;;;17.38;8.30;;;;;;;20.40;100.00;100378.13;5055384;28;20036;-89
2022/09/03 06:09:07;;;;;;;12.77;8.48;;;;;;;20.94;100.00;100374.41;5052987;28;20537;-85
2022/09/03 06:11:34;;;;;;;11.93;6.80;;;;;;;21.88;100.00;100375.94;5053832;28;20502;-86
2022/09/03 06:14:06;;;;;;;16.90;6.82;;;;;;;22.59;100.00;100369.19;5056356;28;20072;-86
2022/09/03 06:16:37;;;;;;;12.27;6.85;;;;;;;23.09;100.00;100372.75;5056730;28;20427;-87
2022/09/03 06:19:08;;;;;;;8.98;6.20;;;;;;;23.30;100.00;100384.66;5056536;28;20025;-87
2022/09/03 06:21:35;;;;;;;10.65;6.72;;;;;;;22.19;100.00;100373.88;5038804;28;20035;-89
2022/09/03 06:24:06;;;;;;;15.52;7.68;;;;;;;22.08;100.00;100376.38;5059548;28;20163;-89
2022/09/03 06:26:32;;;;;;;11.90;7.47;;;;;;;21.91;100.00;100370.09;5071865;28;20033;-89
2022/09/03 06:28:58;;;;;;;17.58;7.95;;;;;;;22.21;100.00;100369.03;5073124;28;20043;-89
2022/09/03 06:31:25;;;;;;;14.27;8.40;;;;;;;21.72;100.00;100360.50;5078975;28;20035;-90
2022/09/03 06:33:53;;;;;;;15.13;8.82;;;;;;;22.27;100.00;100362.69;5079541;28;20092;-90
2022/09/03 06:36:20;;;;;;;9.80;7.35;;;;;;;22.63;100.00;100363.06;5079652;28;20037;-86
2022/09/03 06:38:46;;;;;;;13.07;7.88;;;;;;;22.56;100.00;100357.00;5071353;28;20047;-88
2022/09/03 06:41:20;;;;;;;10.15;7.03;;;;;;;23.42;100.00;100366.50;5077448;28;20021;-89
2022/09/03 06:43:46;;;;;;;12.65;7.72;;;;;;;22.91;100.00;100364.88;5075820;28;20037;-88
2022/09/03 06:46:14;;;;;;;13.23;7.47;;;;;;;23.22;100.00;100354.53;5058836;28;20036;-90
2022/09/03 06:48:40;;;;;;;11.30;7.38;;;;;;;23.82;100.00;100359.97;5058087;28;20061;-92
2022/09/03 06:51:18;;;;;;;12.23;6.90;;;;;;;23.99;100.00;100366.13;5063309;28;20028;-88
2022/09/03 06:53:50;;;;;;;9.85;6.95;;;;;;;24.47;95.98;100373.41;5057293;28;20037;-90
2022/09/03 06:56:25;;;;;;;12.15;7.70;;;;;;;23.05;100.00;100371.59;5041975;28;20044;-88
2022/09/03 06:58:59;;;;;;;14.30;8.18;;;;;;;23.86;100.00;100370.03;5044313;28;20049;-89
2022/09/03 07:01:30;;;;;;;15.57;8.38;;;;;;;23.94;99.43;100372.28;5067227;28;20091;-89
2022/09/03 07:04:04;;;;;;;14.82;8.18;;;;;;;23.69;100.00;100372.00;5058214;28;20376;-88
2022/09/03 07:06:41;;;;;;;10.27;8.93;;;;;;;23.18;100.00;100373.97;5053771;28;20112;-87
2022/09/03 07:09:08;;;;;;;13.35;8.13;;;;;;;24.06;97.89;100381.06;5057393;28;20037;-86
2022/09/03 07:11:36;;;;;;;9.68;7.50;;;;;;;25.53;88.33;100382.38;5058225;28;20029;-90
2022/09/03 07:14:03;;;;;;;10.88;7.30;;;;;;;26.10;84.11;100374.19;5053920;28;20383;-90
2022/09/03 07:16:35;;;;;;;18.10;7.30;;;;;;;25.61;86.27;100380.00;5056982;28;20032;-90
2022/09/03 07:19:04;;;;;;;9.48;7.15;;;;;;;25.20;88.24;100378.09;5063300;28;20112;-89
2022/09/03 07:21:35;;;;;;;10.00;7.22;;;;;;;25.40;85.67;100371.97;5053662;28;20593;-90
2022/09/03 07:24:03;;;;;;;15.90;7.00;;;;;;;25.60;84.71;100374.81;5061429;28;20048;-91
2022/09/03 07:26:31;;;;;;;10.20;6.50;;;;;;;25.51;85.08;100379.13;5045263;28;20033;-89
2022/09/03 07:28:59;;;;;;;9.77;7.20;;;;;;;25.24;85.51;100378.38;5058022;28;20037;-91
2022/09/03 07:31:30;;;;;;;7.95;6.25;;;;;;;25.96;81.82;100376.59;5065472;28;20039;-87
2022/09/03 07:34:00;;;;;;;8.68;5.93;;;;;;;25.61;82.99;100381.91;5065142;28;20082;-90
2022/09/03 07:36:28;;;;;;;12.57;6.78;;;;;;;24.59;88.04;100401.19;5056108;28;20037;-87
2022/09/03 07:38:56;;;;;;;11.73;6.35;;;;;;;24.63;87.29;100402.28;5057985;28;20083;-89
2022/09/03 07:41:23;;;;;;;10.70;6.63;;;;;;;25.06;85.70;100412.16;5037499;28;20028;-87
2022/09/03 07:43:49;;;;;;;12.82;6.70;;;;;;;25.18;86.69;100402.78;5053706;28;20043;-90
2022/09/03 07:46:23;;;;;;;8.38;6.45;;;;;;;25.56;83.88;100404.38;5054816;28;20033;-87
2022/09/03 07:48:51;;;;;;;11.00;6.53;;;;;;;25.67;82.54;100406.09;5049917;28;20040;-88
2022/09/03 07:51:18;;;;;;;16.58;6.90;;;;;;;25.66;82.99;100401.72;5053904;28;20119;-90
2022/09/03 07:53:46;;;;;;;13.57;6.80;;;;;;;25.50;83.10;100415.47;5061322;28;20052;-90
2022/09/03 07:56:12;;;;;;;18.88;6.32;;;;;;;25.31;84.64;100406.13;5054427;28;20033;-88
2022/09/03 07:58:39;;;;;;;8.43;5.80;;;;;;;25.65;82.56;100412.88;5052843;28;20029;-90
2022/09/03 08:01:07;;;;;;;11.52;6.47;;;;;;;25.44;83.25;100411.91;5054893;28;20403;-89
2022/09/03 08:03:37;;;;;;;10.65;5.85;;;;;;;25.09;84.38;100415.16;5059612;28;20033;-89
2022/09/03 08:06:07;;;;;;;12.20;5.50;;;;;;;25.63;80.90;100428.59;5059887;28;20056;-89
2022/09/03 08:08:37;;;;;;;14.70;5.03;;;;;;;25.61;78.59;100449.75;5057245;28;20029;-88
2022/09/03 08:11:06;;;;;;;5.20;4.18;;;;;;;25.75;78.46;100426.50;5040943;28;20029;-88
2022/09/03 08:13:33;;;;;;;9.25;4.10;;;;;;;25.59;79.20;100425.56;5058682;28;20094;-90
2022/09/03 08:16:01;;;;;;;8.10;4.30;;;;;;;25.96;77.84;100430.91;5057359;28;20021;-90
2022/09/03 08:18:34;;;;;;;9.30;4.15;;;;;;;25.61;79.18;100433.47;5053462;28;20475;-91
2022/09/03 08:21:00;;;;;;;9.50;3.78;;;;;;;26.57;72.25;100431.13;5043214;28;20029;-91
2022/09/03 08:23:25;;;;;;;7.15;3.90;;;;;;;25.89;74.36;100424.91;5055904;28;20029;-87
2022/09/03 08:26:00;;;;;;;5.63;3.95;;;;;;;26.43;72.55;100427.28;5060235;28;20105;-90
2022/09/03 08:28:28;;;;;;;9.85;3.65;;;;;;;26.40;73.51;100414.25;5057718;28;20053;-86
2022/09/03 08:30:54;;;;;;;6.05;3.60;;;;;;;26.36;73.26;100421.28;5061600;28;20039;-92
2022/09/03 08:33:35;;;;;;;12.10;3.88;;;;;;;26.33;74.02;100419.94;5061923;28;20052;-88
2022/09/03 08:36:24;;;;;;;6.13;3.70;;;;;;;25.68;75.86;100425.91;5055470;28;20068;-85
2022/09/03 08:38:54;;;;;;;8.00;3.25;;;;;;;25.11;79.28;100429.31;5057197;28;20037;-88
2022/09/03 08:41:52;;;;;;;8.68;4.50;;;;;;;24.94;79.82;100439.47;5051764;28;20029;-88
2022/09/03 08:44:34;;;;;;;13.05;3.80;;;;;;;25.06;80.05;100442.00;5054223;28;20025;-88
2022/09/03 08:47:24;;;;;;;8.45;4.75;;;;;;;24.77;81.53;100433.31;5057842;28;20033;-83
2022/09/03 08:50:18;;;;;;;5.95;4.53;;;;;;;25.10;79.13;100443.94;5056565;28;20034;-90
2022/09/03 08:52:50;;;;;;;7.78;4.20;;;;;;;25.01;79.08;100431.94;5054083;28;20067;-83
2022/09/03 08:55:24;;;;;;;;;;;;;;;24.97;79.95;100444.38;5063352;28;20033;-83
2022/09/03 08:58:12;;;;;;;11.93;5.10;;;;;;;24.79;79.97;100442.00;5054855;28;20003;-91
2022/09/03 09:00:47;;;;;;;9.68;4.88;;;;;;;24.76;80.73;100452.56;5055442;28;20124;-88
2022/09/03 09:03:29;;;;;;;11.43;4.00;;;;;;;25.01;80.39;100444.69;5054694;28;20039;-93
2022/09/03 09:06:09;;;;;;;8.45;4.50;;;;;;;24.81;80.57;100445.28;5057619;28;20058;-90
2022/09/03 09:09:15;;;;;;;8.05;4.32;;;;;;;24.80;81.10;100454.50;5056945;28;20060;-86
2022/09/03 09:12:11;;;;;;;8.68;3.83;;;;;;;24.53;81.42;100456.38;5053499;28;20072;-90
2022/09/03 09:15:07;;;;;;;10.63;4.00;;;;;;;24.19;83.53;100456.53;5038153;28;20037;-90
2022/09/03 09:17:42;;;;;;;11.20;5.38;;;;;;;24.36;83.85;100452.97;5057273;28;20437;-85
2022/09/03 09:20:38;;;;;;;17.25;5.10;;;;;;;24.50;85.19;100449.59;5062474;28;20407;-88
2022/09/03 09:25:59;;;;;;;20.33;5.90;;;;;;;24.18;86.77;100449.50;5061247;28;20052;-89
2022/09/03 09:28:33;;;;;;;9.10;5.93;;;;;;;23.95;87.84;100441.63;5042080;28;20375;-84
2022/09/03 09:31:01;;;;;;;10.05;5.63;;;;;;;23.87;89.06;100450.16;5061832;28;20029;-84
2022/09/03 09:33:31;;;;;;;11.75;5.75;;;;;;;23.78;90.30;100456.25;5061958;28;20051;-78
2022/09/03 09:36:10;;;;;;;8.48;5.95;;;;;;;24.50;86.96;100449.59;5076784;28;20300;-80
2022/09/03 09:38:39;;;;;;;8.45;5.68;;;;;;;25.50;81.73;100439.91;5068500;28;20041;-85
2022/09/03 09:41:24;;;;;;;8.00;4.75;;;;;;;26.12;79.78;100451.63;5057975;28;20459;-83
2022/09/03 09:44:04;;;;;;;8.93;5.50;;;;;;;26.35;77.69;100450.38;5056600;28;20073;-86
2022/09/03 09:46:39;;;;;;;9.95;5.38;;;;;;;26.61;75.79;100460.22;5067553;28;20104;-83
2022/09/03 09:49:30;;;;;;;9.00;5.65;;;;;;;27.04;74.82;100469.84;5056528;28;20039;-85
2022/09/03 09:52:16;;;;;;;11.00;5.28;;;;;;;27.16;73.81;100455.94;5054620;28;20126;-83
2022/09/03 09:54:45;;;;;;;7.45;5.20;;;;;;;27.20;73.87;100466.03;5057849;28;20041;-83
2022/09/03 09:57:57;;;;;;;7.82;4.70;;;;;;;27.36;74.00;100457.84;5072972;28;20028;-88
2022/09/03 10:01:48;;;;;;;8.10;4.78;;;;;;;27.96;71.84;100455.00;5099525;28;20023;-89
2022/09/03 10:05:24;;;;;;;9.93;5.18;;;;;;;27.67;72.47;100459.47;5115925;28;20041;-89
2022/09/03 10:35:34;;;;;;;10.70;3.80;;;;;;;25.85;82.52;100434.69;4929244;26;20041;-86
2022/09/03 10:38:05;;;;;;;5.38;3.38;;;;;;;26.23;79.61;100435.38;5035396;28;20112;-83
2022/09/03 10:40:41;;;;;;;9.43;3.33;;;;;;;26.06;79.26;100454.59;5041058;28;20030;-83
2022/09/03 10:43:32;;;;;;;8.95;3.47;;;;;;;25.47;82.60;100459.41;5039003;28;20093;-84
2022/09/03 10:46:14;;;;;;;7.35;3.30;;;;;;;25.22;84.94;100451.09;5041377;28;20112;-85
2022/09/03 10:49:27;;;;;;;8.18;3.65;;;;;;;24.75;87.55;100446.31;5041292;28;20033;-86
2022/09/03 10:52:08;;;;;;;8.70;3.25;;;;;;;24.57;89.32;100455.63;4995478;28;20046;-88
2022/09/03 10:55:07;;;;;;;4.88;3.42;;;;;;;24.60;90.25;100452.41;4997119;28;20054;-86
2022/09/03 10:57:58;;;;;;;11.90;3.50;;;;;;;24.57;91.40;100449.38;4985405;28;20050;-89
2022/09/03 11:00:26;;;;;;;7.50;3.70;;;;;;;24.73;90.21;100443.03;4976489;28;20073;-88
2022/09/03 11:03:11;;;;;;;6.38;3.70;;;;;;;24.54;91.43;100431.75;5007555;23;20051;-88
2022/09/03 11:06:15;;;;;;;8.60;3.30;;;;;;;24.23;93.83;100439.81;4964523;28;20045;-90
2022/09/03 11:08:53;;;;;;;7.68;4.00;;;;;;;24.45;92.76;100443.31;4968414;29;20074;-91
2022/09/03 11:11:37;;;;;;;10.20;4.25;;;;;;;24.21;94.73;100453.59;4977374;28;20039;-88
2022/09/03 11:14:10;;;;;;;;;;;;;;;24.10;95.25;100460.75;4964375;29;20046;-88
2022/09/03 11:16:47;;;;;;;7.07;4.10;;;;;;;24.03;95.77;100456.56;4962743;29;20039;-90
2022/09/03 11:19:17;;;;;;;8.55;3.60;;;;;;;23.95;97.60;100457.84;4960462;29;20039;-87
2022/09/03 11:21:43;;;;;;;8.38;3.78;;;;;;;23.95;98.35;100465.16;4959331;29;20336;-90
2022/09/03 11:24:18;;;;;;;9.10;4.00;;;;;;;23.91;100.00;100469.44;4961858;29;20046;-88
2022/09/03 11:26:51;;;;;;;16.05;4.80;;;;;;;23.78;100.00;100472.50;4959556;29;20038;-89
2022/09/03 11:29:54;;;;;;;16.75;5.57;;;;;;;23.48;100.00;100468.28;4925145;29;20031;-89
2022/09/03 11:32:45;;;;;;;12.90;5.95;;;;;;;23.25;100.00;100463.03;4971692;28;20119;-89
2022/09/03 11:35:27;;;;;;;10.20;5.75;;;;;;;23.15;100.00;100458.28;4976921;28;20110;-89
2022/09/03 11:38:13;;;;;;;15.75;6.70;;;;;;;23.22;100.00;100452.72;4978844;28;20035;-88
2022/09/03 11:40:55;;;;;;;14.40;7.25;;;;;;;23.03;100.00;100454.84;4979437;28;20039;-88
2022/09/03 11:43:43;;;;;;;15.00;7.57;;;;;;;23.03;100.00;100448.63;4987310;28;20054;-90
2022/09/03 11:46:23;;;;;;;13.05;7.28;;;;;;;23.01;100.00;100448.84;4987204;28;20035;-92
2022/09/03 11:48:51;;;;;;;20.55;8.82;;;;;;;22.63;100.00;100437.91;4987553;28;20031;-91
2022/09/03 11:51:36;;;;;;;16.33;9.32;;;;;;;22.46;100.00;100450.53;4987773;28;20043;-88
2022/09/03 11:54:22;;;;;;;16.73;8.90;;;;;;;22.63;100.00;100454.09;4982309;28;20449;-90
2022/09/03 11:56:49;;;;;;;16.65;9.43;;;;;;;22.58;100.00;100456.69;4988536;28;20073;-91
2022/09/03 11:59:39;;;;;;;19.50;10.32;;;;;;;22.23;100.00;100453.31;4953666;28;20062;-90
2022/09/03 12:02:22;;;;;;;17.55;9.02;;;;;;;22.10;100.00;100443.63;4967502;28;20053;-90
2022/09/03 12:05:18;;;;;;;21.45;10.02;;;;;;;22.19;100.00;100441.34;4986286;28;20046;-90
2022/09/03 12:08:08;;;;;;;16.95;9.95;;;;;;;22.29;100.00;100452.34;4986224;28;20049;-91
2022/09/03 12:11:12;;;;;;;20.05;10.80;;;;;;;22.27;100.00;100449.09;4984642;28;20043;-90
2022/09/03 12:14:16;;;;;;;20.40;11.55;;;;;;;22.17;100.00;100455.91;4986754;28;20055;-92
2022/09/03 12:17:15;;;;;;;20.58;11.80;;;;;;;22.15;100.00;100466.13;4987483;28;20039;-89
2022/09/03 12:19:56;;;;;;;15.73;12.13;;;;;;;22.14;100.00;100453.69;4985970;28;20116;-88
2022/09/03 12:22:37;;;;;;;17.27;12.57;;;;;;;22.05;100.00;100449.72;4987738;28;20109;-90
2022/09/03 12:25:09;;;;;;;17.15;12.18;;;;;;;21.97;100.00;100447.41;4967132;28;20038;-91